sensor_id;sensor_type;location;lat;lon;timestamp;P1;durP1;ratioP1;P2;durP2;ratioP2
16199;SDS011;8207;52.494;4.654;2022-07-23T00:01:10;4.80;;;2.53;;
16199;SDS011;8207;52.494;4.654;2022-07-23T00:03:37;2.47;;;2.27;;
16199;SDS011;8207;52.494;4.654;2022-07-23T00:06:04;2.63;;;2.43;;
16199;SDS011;8207;52.494;4.654;2022-07-23T00:08:31;2.30;;;2.20;;
16199;SDS011;8207;52.494;4.654;2022-07-23T00:10:59;2.17;;;2.00;;
16199;SDS011;8207;52.494;4.654;2022-07-23T00:13:26;2.67;;;2.33;;
16199;SDS011;8207;52.494;4.654;2022-07-23T00:15:53;2.90;;;2.50;;
16199;SDS011;8207;52.494;4.654;2022-07-23T00:18:20;2.60;;;2.40;;
16199;SDS011;8207;52.494;4.654;2022-07-23T00:20:47;3.17;;;2.67;;
16199;SDS011;8207;52.494;4.654;2022-07-23T00:23:14;3.43;;;3.10;;
16199;SDS011;8207;52.494;4.654;2022-07-23T00:25:41;4.33;;;3.50;;
16199;SDS011;8207;52.494;4.654;2022-07-23T00:28:09;7.03;;;4.83;;
16199;SDS011;8207;52.494;4.654;2022-07-23T00:30:36;5.43;;;4.93;;
16199;SDS011;8207;52.494;4.654;2022-07-23T00:33:04;4.50;;;3.87;;
16199;SDS011;8207;52.494;4.654;2022-07-23T00:35:35;3.50;;;3.20;;
16199;SDS011;8207;52.494;4.654;2022-07-23T00:38:05;4.27;;;2.93;;
16199;SDS011;8207;52.494;4.654;2022-07-23T00:40:34;3.27;;;3.07;;
16199;SDS011;8207;52.494;4.654;2022-07-23T00:43:02;2.70;;;2.50;;
16199;SDS011;8207;52.494;4.654;2022-07-23T00:45:30;3.20;;;2.90;;
16199;SDS011;8207;52.494;4.654;2022-07-23T00:47:57;2.60;;;2.40;;
16199;SDS011;8207;52.494;4.654;2022-07-23T00:50:25;2.50;;;2.30;;
16199;SDS011;8207;52.494;4.654;2022-07-23T00:52:52;2.17;;;2.07;;
16199;SDS011;8207;52.494;4.654;2022-07-23T00:55:19;4.47;;;2.47;;
16199;SDS011;8207;52.494;4.654;2022-07-23T00:57:46;2.40;;;2.20;;
16199;SDS011;8207;52.494;4.654;2022-07-23T01:00:14;2.50;;;2.30;;
16199;SDS011;8207;52.494;4.654;2022-07-23T01:02:44;3.27;;;2.83;;
16199;SDS011;8207;52.494;4.654;2022-07-23T01:05:11;2.33;;;2.13;;
16199;SDS011;8207;52.494;4.654;2022-07-23T01:07:38;2.40;;;2.20;;
16199;SDS011;8207;52.494;4.654;2022-07-23T01:10:05;2.40;;;2.20;;
16199;SDS011;8207;52.494;4.654;2022-07-23T01:12:53;2.60;;;2.40;;
16199;SDS011;8207;52.494;4.654;2022-07-23T01:15:20;2.77;;;2.57;;
16199;SDS011;8207;52.494;4.654;2022-07-23T01:17:49;3.53;;;2.93;;
16199;SDS011;8207;52.494;4.654;2022-07-23T01:20:16;4.20;;;3.23;;
16199;SDS011;8207;52.494;4.654;2022-07-23T01:22:45;3.80;;;3.40;;
16199;SDS011;8207;52.494;4.654;2022-07-23T01:25:12;3.87;;;2.90;;
16199;SDS011;8207;52.494;4.654;2022-07-23T01:27:39;3.23;;;2.93;;
16199;SDS011;8207;52.494;4.654;2022-07-23T01:30:07;3.13;;;2.90;;
16199;SDS011;8207;52.494;4.654;2022-07-23T01:32:34;3.47;;;3.17;;
16199;SDS011;8207;52.494;4.654;2022-07-23T01:35:01;3.83;;;2.97;;
16199;SDS011;8207;52.494;4.654;2022-07-23T01:37:28;3.63;;;3.13;;
16199;SDS011;8207;52.494;4.654;2022-07-23T01:39:56;4.50;;;3.10;;
16199;SDS011;8207;52.494;4.654;2022-07-23T01:42:24;3.07;;;2.70;;
16199;SDS011;8207;52.494;4.654;2022-07-23T01:44:51;3.40;;;3.10;;
16199;SDS011;8207;52.494;4.654;2022-07-23T01:47:17;3.93;;;3.47;;
16199;SDS011;8207;52.494;4.654;2022-07-23T01:49:44;4.27;;;3.10;;
16199;SDS011;8207;52.494;4.654;2022-07-23T01:52:11;3.07;;;2.80;;
16199;SDS011;8207;52.494;4.654;2022-07-23T01:54:38;3.77;;;2.60;;
16199;SDS011;8207;52.494;4.654;2022-07-23T01:57:07;3.37;;;2.50;;
16199;SDS011;8207;52.494;4.654;2022-07-23T01:59:34;3.17;;;2.80;;
16199;SDS011;8207;52.494;4.654;2022-07-23T02:02:02;3.20;;;2.90;;
16199;SDS011;8207;52.494;4.654;2022-07-23T02:04:30;3.27;;;3.00;;
16199;SDS011;8207;52.494;4.654;2022-07-23T02:07:00;3.30;;;2.53;;
16199;SDS011;8207;52.494;4.654;2022-07-23T02:09:27;2.80;;;2.60;;
16199;SDS011;8207;52.494;4.654;2022-07-23T02:11:54;2.90;;;2.70;;
16199;SDS011;8207;52.494;4.654;2022-07-23T02:14:23;3.10;;;2.80;;
16199;SDS011;8207;52.494;4.654;2022-07-23T02:16:50;2.57;;;2.20;;
16199;SDS011;8207;52.494;4.654;2022-07-23T02:19:16;3.03;;;2.47;;
16199;SDS011;8207;52.494;4.654;2022-07-23T02:21:43;2.20;;;2.10;;
16199;SDS011;8207;52.494;4.654;2022-07-23T02:24:10;3.07;;;2.80;;
16199;SDS011;8207;52.494;4.654;2022-07-23T02:26:37;2.97;;;2.70;;
16199;SDS011;8207;52.494;4.654;2022-07-23T02:29:04;3.00;;;2.80;;
16199;SDS011;8207;52.494;4.654;2022-07-23T02:31:33;2.90;;;2.70;;
16199;SDS011;8207;52.494;4.654;2022-07-23T02:34:00;2.77;;;2.50;;
16199;SDS011;8207;52.494;4.654;2022-07-23T02:36:27;3.33;;;3.03;;
16199;SDS011;8207;52.494;4.654;2022-07-23T02:38:55;3.30;;;2.73;;
16199;SDS011;8207;52.494;4.654;2022-07-23T02:41:22;2.73;;;2.53;;
16199;SDS011;8207;52.494;4.654;2022-07-23T02:43:49;2.63;;;2.40;;
16199;SDS011;8207;52.494;4.654;2022-07-23T02:46:16;3.03;;;2.73;;
16199;SDS011;8207;52.494;4.654;2022-07-23T02:48:45;3.23;;;2.70;;
16199;SDS011;8207;52.494;4.654;2022-07-23T02:51:11;4.00;;;3.40;;
16199;SDS011;8207;52.494;4.654;2022-07-23T02:53:38;3.83;;;2.67;;
16199;SDS011;8207;52.494;4.654;2022-07-23T02:56:05;3.00;;;2.80;;
16199;SDS011;8207;52.494;4.654;2022-07-23T02:58:32;2.80;;;2.60;;
16199;SDS011;8207;52.494;4.654;2022-07-23T03:00:59;3.10;;;2.83;;
16199;SDS011;8207;52.494;4.654;2022-07-23T03:03:26;3.17;;;2.90;;
16199;SDS011;8207;52.494;4.654;2022-07-23T03:05:54;2.73;;;2.50;;
16199;SDS011;8207;52.494;4.654;2022-07-23T03:08:21;3.47;;;3.13;;
16199;SDS011;8207;52.494;4.654;2022-07-23T03:10:47;3.27;;;2.87;;
16199;SDS011;8207;52.494;4.654;2022-07-23T03:13:14;2.90;;;2.70;;
16199;SDS011;8207;52.494;4.654;2022-07-23T03:15:42;3.07;;;2.87;;
16199;SDS011;8207;52.494;4.654;2022-07-23T03:18:09;3.50;;;3.20;;
16199;SDS011;8207;52.494;4.654;2022-07-23T03:20:37;3.03;;;2.73;;
16199;SDS011;8207;52.494;4.654;2022-07-23T03:23:05;2.97;;;2.67;;
16199;SDS011;8207;52.494;4.654;2022-07-23T03:25:32;3.40;;;2.80;;
16199;SDS011;8207;52.494;4.654;2022-07-23T03:27:59;3.00;;;2.80;;
16199;SDS011;8207;52.494;4.654;2022-07-23T03:30:25;3.30;;;3.00;;
16199;SDS011;8207;52.494;4.654;2022-07-23T03:32:52;2.80;;;2.60;;
16199;SDS011;8207;52.494;4.654;2022-07-23T03:35:19;2.87;;;2.67;;
16199;SDS011;8207;52.494;4.654;2022-07-23T03:37:46;3.50;;;3.20;;
16199;SDS011;8207;52.494;4.654;2022-07-23T03:40:14;3.30;;;2.70;;
16199;SDS011;8207;52.494;4.654;2022-07-23T03:42:41;4.67;;;3.60;;
16199;SDS011;8207;52.494;4.654;2022-07-23T03:45:09;4.57;;;3.50;;
16199;SDS011;8207;52.494;4.654;2022-07-23T03:47:36;3.67;;;3.37;;
16199;SDS011;8207;52.494;4.654;2022-07-23T03:50:04;4.33;;;3.57;;
16199;SDS011;8207;52.494;4.654;2022-07-23T03:52:31;3.87;;;3.40;;
16199;SDS011;8207;52.494;4.654;2022-07-23T03:54:58;3.07;;;2.87;;
16199;SDS011;8207;52.494;4.654;2022-07-23T03:57:27;3.10;;;2.90;;
16199;SDS011;8207;52.494;4.654;2022-07-23T03:59:54;4.17;;;3.47;;
16199;SDS011;8207;52.494;4.654;2022-07-23T04:02:20;4.33;;;3.70;;
16199;SDS011;8207;52.494;4.654;2022-07-23T04:04:47;2.97;;;2.77;;
16199;SDS011;8207;52.494;4.654;2022-07-23T04:07:14;4.40;;;3.30;;
16199;SDS011;8207;52.494;4.654;2022-07-23T04:09:42;3.57;;;3.23;;
16199;SDS011;8207;52.494;4.654;2022-07-23T04:12:09;3.40;;;3.10;;
16199;SDS011;8207;52.494;4.654;2022-07-23T04:14:37;3.00;;;2.73;;
16199;SDS011;8207;52.494;4.654;2022-07-23T04:17:04;2.87;;;2.67;;
16199;SDS011;8207;52.494;4.654;2022-07-23T04:19:31;2.77;;;2.57;;
16199;SDS011;8207;52.494;4.654;2022-07-23T04:21:58;2.50;;;2.30;;
16199;SDS011;8207;52.494;4.654;2022-07-23T04:24:26;2.60;;;2.40;;
16199;SDS011;8207;52.494;4.654;2022-07-23T04:26:53;3.17;;;2.87;;
16199;SDS011;8207;52.494;4.654;2022-07-23T04:29:20;3.83;;;3.40;;
16199;SDS011;8207;52.494;4.654;2022-07-23T04:31:48;3.53;;;2.80;;
16199;SDS011;8207;52.494;4.654;2022-07-23T04:34:15;3.50;;;3.20;;
16199;SDS011;8207;52.494;4.654;2022-07-23T04:36:41;3.47;;;3.00;;
16199;SDS011;8207;52.494;4.654;2022-07-23T04:39:08;3.00;;;2.80;;
16199;SDS011;8207;52.494;4.654;2022-07-23T04:41:35;3.87;;;3.47;;
16199;SDS011;8207;52.494;4.654;2022-07-23T04:44:02;5.07;;;2.53;;
16199;SDS011;8207;52.494;4.654;2022-07-23T04:46:29;3.00;;;2.80;;
16199;SDS011;8207;52.494;4.654;2022-07-23T04:48:57;2.87;;;2.67;;
16199;SDS011;8207;52.494;4.654;2022-07-23T04:51:24;3.10;;;2.90;;
16199;SDS011;8207;52.494;4.654;2022-07-23T04:53:51;4.47;;;2.83;;
16199;SDS011;8207;52.494;4.654;2022-07-23T04:56:18;4.37;;;2.90;;
16199;SDS011;8207;52.494;4.654;2022-07-23T04:58:45;3.87;;;2.70;;
16199;SDS011;8207;52.494;4.654;2022-07-23T05:01:12;2.57;;;2.37;;
16199;SDS011;8207;52.494;4.654;2022-07-23T05:03:38;3.00;;;2.80;;
16199;SDS011;8207;52.494;4.654;2022-07-23T05:06:07;3.17;;;2.60;;
16199;SDS011;8207;52.494;4.654;2022-07-23T05:08:34;2.40;;;2.20;;
16199;SDS011;8207;52.494;4.654;2022-07-23T05:11:01;2.37;;;2.17;;
16199;SDS011;8207;52.494;4.654;2022-07-23T05:13:28;2.90;;;2.60;;
16199;SDS011;8207;52.494;4.654;2022-07-23T05:15:54;3.20;;;2.83;;
16199;SDS011;8207;52.494;4.654;2022-07-23T05:18:21;3.57;;;2.67;;
16199;SDS011;8207;52.494;4.654;2022-07-23T05:20:48;3.20;;;2.57;;
16199;SDS011;8207;52.494;4.654;2022-07-23T05:23:16;3.40;;;2.30;;
16199;SDS011;8207;52.494;4.654;2022-07-23T05:25:44;2.53;;;2.33;;
16199;SDS011;8207;52.494;4.654;2022-07-23T05:28:11;2.60;;;2.40;;
16199;SDS011;8207;52.494;4.654;2022-07-23T05:30:37;2.70;;;2.50;;
16199;SDS011;8207;52.494;4.654;2022-07-23T05:33:04;2.80;;;2.30;;
16199;SDS011;8207;52.494;4.654;2022-07-23T05:35:32;2.87;;;2.00;;
16199;SDS011;8207;52.494;4.654;2022-07-23T05:37:59;2.53;;;2.33;;
16199;SDS011;8207;52.494;4.654;2022-07-23T05:40:27;3.00;;;2.40;;
16199;SDS011;8207;52.494;4.654;2022-07-23T05:42:54;2.50;;;2.30;;
16199;SDS011;8207;52.494;4.654;2022-07-23T05:45:21;2.57;;;2.37;;
16199;SDS011;8207;52.494;4.654;2022-07-23T05:47:48;2.00;;;1.90;;
16199;SDS011;8207;52.494;4.654;2022-07-23T05:50:16;3.50;;;2.63;;
16199;SDS011;8207;52.494;4.654;2022-07-23T05:52:43;4.10;;;2.57;;
16199;SDS011;8207;52.494;4.654;2022-07-23T05:55:11;2.67;;;1.80;;
16199;SDS011;8207;52.494;4.654;2022-07-23T05:57:39;2.87;;;2.67;;
16199;SDS011;8207;52.494;4.654;2022-07-23T06:00:07;3.67;;;2.80;;
16199;SDS011;8207;52.494;4.654;2022-07-23T06:02:35;3.10;;;2.20;;
16199;SDS011;8207;52.494;4.654;2022-07-23T06:05:04;3.23;;;2.00;;
16199;SDS011;8207;52.494;4.654;2022-07-23T06:07:32;3.00;;;1.97;;
16199;SDS011;8207;52.494;4.654;2022-07-23T06:09:59;2.50;;;1.90;;
16199;SDS011;8207;52.494;4.654;2022-07-23T06:12:26;3.20;;;1.80;;
16199;SDS011;8207;52.494;4.654;2022-07-23T06:14:54;2.45;;;1.90;;
16199;SDS011;8207;52.494;4.654;2022-07-23T06:17:22;1.80;;;1.70;;
16199;SDS011;8207;52.494;4.654;2022-07-23T06:19:48;2.90;;;1.80;;
16199;SDS011;8207;52.494;4.654;2022-07-23T06:22:15;3.42;;;1.70;;
16199;SDS011;8207;52.494;4.654;2022-07-23T06:24:42;2.10;;;1.80;;
16199;SDS011;8207;52.494;4.654;2022-07-23T06:27:09;2.42;;;1.95;;
16199;SDS011;8207;52.494;4.654;2022-07-23T06:29:36;1.70;;;1.60;;
16199;SDS011;8207;52.494;4.654;2022-07-23T06:32:04;3.20;;;2.28;;
16199;SDS011;8207;52.494;4.654;2022-07-23T06:34:31;4.18;;;1.90;;
16199;SDS011;8207;52.494;4.654;2022-07-23T06:36:58;3.22;;;1.88;;
16199;SDS011;8207;52.494;4.654;2022-07-23T06:39:26;2.25;;;1.50;;
16199;SDS011;8207;52.494;4.654;2022-07-23T06:41:53;2.38;;;1.30;;
16199;SDS011;8207;52.494;4.654;2022-07-23T06:44:19;4.63;;;1.67;;
16199;SDS011;8207;52.494;4.654;2022-07-23T06:46:46;1.20;;;0.95;;
16199;SDS011;8207;52.494;4.654;2022-07-23T06:49:15;1.90;;;0.85;;
16199;SDS011;8207;52.494;4.654;2022-07-23T06:51:41;4.05;;;1.25;;
16199;SDS011;8207;52.494;4.654;2022-07-23T06:54:08;1.02;;;0.95;;
16199;SDS011;8207;52.494;4.654;2022-07-23T06:56:35;1.63;;;1.00;;
16199;SDS011;8207;52.494;4.654;2022-07-23T06:59:02;3.10;;;1.15;;
16199;SDS011;8207;52.494;4.654;2022-07-23T07:01:29;3.20;;;1.15;;
16199;SDS011;8207;52.494;4.654;2022-07-23T07:03:56;2.85;;;1.10;;
16199;SDS011;8207;52.494;4.654;2022-07-23T07:06:24;2.40;;;0.80;;
16199;SDS011;8207;52.494;4.654;2022-07-23T07:08:51;1.67;;;0.70;;
16199;SDS011;8207;52.494;4.654;2022-07-23T07:11:18;2.10;;;0.90;;
16199;SDS011;8207;52.494;4.654;2022-07-23T07:13:45;1.55;;;0.90;;
16199;SDS011;8207;52.494;4.654;2022-07-23T07:16:11;1.52;;;0.73;;
16199;SDS011;8207;52.494;4.654;2022-07-23T07:18:38;3.13;;;0.98;;
16199;SDS011;8207;52.494;4.654;2022-07-23T07:21:05;1.73;;;0.70;;
16199;SDS011;8207;52.494;4.654;2022-07-23T07:23:34;0.60;;;0.60;;
16199;SDS011;8207;52.494;4.654;2022-07-23T07:26:00;1.58;;;0.88;;
16199;SDS011;8207;52.494;4.654;2022-07-23T07:28:27;1.23;;;0.80;;
16199;SDS011;8207;52.494;4.654;2022-07-23T07:30:54;1.35;;;0.70;;
16199;SDS011;8207;52.494;4.654;2022-07-23T07:33:21;3.22;;;0.98;;
16199;SDS011;8207;52.494;4.654;2022-07-23T07:35:49;3.45;;;0.82;;
16199;SDS011;8207;52.494;4.654;2022-07-23T07:38:16;0.60;;;0.50;;
16199;SDS011;8207;52.494;4.654;2022-07-23T07:40:45;2.55;;;0.88;;
16199;SDS011;8207;52.494;4.654;2022-07-23T07:43:12;3.03;;;0.80;;
16199;SDS011;8207;52.494;4.654;2022-07-23T07:45:39;1.92;;;0.90;;
16199;SDS011;8207;52.494;4.654;2022-07-23T07:48:06;3.22;;;0.90;;
16199;SDS011;8207;52.494;4.654;2022-07-23T07:50:32;2.25;;;0.90;;
16199;SDS011;8207;52.494;4.654;2022-07-23T07:52:59;1.23;;;0.82;;
16199;SDS011;8207;52.494;4.654;2022-07-23T07:55:26;1.67;;;0.70;;
16199;SDS011;8207;52.494;4.654;2022-07-23T07:57:55;0.57;;;0.57;;
16199;SDS011;8207;52.494;4.654;2022-07-23T08:00:21;1.67;;;0.77;;
16199;SDS011;8207;52.494;4.654;2022-07-23T08:02:49;1.27;;;0.77;;
16199;SDS011;8207;52.494;4.654;2022-07-23T08:05:19;0.60;;;0.50;;
16199;SDS011;8207;52.494;4.654;2022-07-23T08:07:46;2.15;;;0.90;;
16199;SDS011;8207;52.494;4.654;2022-07-23T08:10:13;1.50;;;0.80;;
16199;SDS011;8207;52.494;4.654;2022-07-23T08:12:41;1.08;;;0.80;;
16199;SDS011;8207;52.494;4.654;2022-07-23T08:15:12;2.63;;;0.63;;
16199;SDS011;8207;52.494;4.654;2022-07-23T08:17:40;1.15;;;0.75;;
16199;SDS011;8207;52.494;4.654;2022-07-23T08:20:08;2.85;;;1.00;;
16199;SDS011;8207;52.494;4.654;2022-07-23T08:22:43;3.67;;;0.98;;
16199;SDS011;8207;52.494;4.654;2022-07-23T08:25:11;5.90;;;1.55;;
16199;SDS011;8207;52.494;4.654;2022-07-23T08:27:38;3.95;;;0.90;;
16199;SDS011;8207;52.494;4.654;2022-07-23T08:30:06;2.75;;;0.93;;
16199;SDS011;8207;52.494;4.654;2022-07-23T08:32:47;1.13;;;0.82;;
16199;SDS011;8207;52.494;4.654;2022-07-23T08:35:14;1.45;;;0.88;;
16199;SDS011;8207;52.494;4.654;2022-07-23T08:37:41;1.63;;;0.80;;
16199;SDS011;8207;52.494;4.654;2022-07-23T08:40:09;1.58;;;0.93;;
16199;SDS011;8207;52.494;4.654;2022-07-23T08:42:37;1.10;;;0.60;;
16199;SDS011;8207;52.494;4.654;2022-07-23T08:45:05;1.02;;;0.65;;
16199;SDS011;8207;52.494;4.654;2022-07-23T08:47:34;1.30;;;0.63;;
16199;SDS011;8207;52.494;4.654;2022-07-23T08:50:05;1.77;;;0.93;;
16199;SDS011;8207;52.494;4.654;2022-07-23T08:52:34;1.63;;;0.73;;
16199;SDS011;8207;52.494;4.654;2022-07-23T08:55:03;0.82;;;0.70;;
16199;SDS011;8207;52.494;4.654;2022-07-23T08:57:31;2.85;;;0.90;;
16199;SDS011;8207;52.494;4.654;2022-07-23T08:59:58;2.05;;;1.10;;
16199;SDS011;8207;52.494;4.654;2022-07-23T09:02:25;2.45;;;0.80;;
16199;SDS011;8207;52.494;4.654;2022-07-23T09:04:51;1.70;;;0.82;;
16199;SDS011;8207;52.494;4.654;2022-07-23T09:07:20;1.38;;;0.82;;
16199;SDS011;8207;52.494;4.654;2022-07-23T09:09:46;1.58;;;0.68;;
16199;SDS011;8207;52.494;4.654;2022-07-23T09:12:24;1.40;;;0.73;;
16199;SDS011;8207;52.494;4.654;2022-07-23T09:14:52;4.00;;;0.93;;
16199;SDS011;8207;52.494;4.654;2022-07-23T09:17:19;2.28;;;0.65;;
16199;SDS011;8207;52.494;4.654;2022-07-23T09:19:46;2.33;;;1.02;;
16199;SDS011;8207;52.494;4.654;2022-07-23T09:22:17;3.08;;;0.90;;
16199;SDS011;8207;52.494;4.654;2022-07-23T09:25:02;1.80;;;0.60;;
16199;SDS011;8207;52.494;4.654;2022-07-23T09:27:44;1.90;;;0.73;;
16199;SDS011;8207;52.494;4.654;2022-07-23T09:30:13;2.15;;;0.80;;
16199;SDS011;8207;52.494;4.654;2022-07-23T09:32:39;2.67;;;0.98;;
16199;SDS011;8207;52.494;4.654;2022-07-23T09:35:07;2.45;;;0.90;;
16199;SDS011;8207;52.494;4.654;2022-07-23T09:37:35;1.20;;;0.70;;
16199;SDS011;8207;52.494;4.654;2022-07-23T09:40:05;3.25;;;0.98;;
16199;SDS011;8207;52.494;4.654;2022-07-23T09:42:34;2.78;;;0.90;;
16199;SDS011;8207;52.494;4.654;2022-07-23T09:45:01;2.08;;;0.93;;
16199;SDS011;8207;52.494;4.654;2022-07-23T09:47:30;1.00;;;0.70;;
16199;SDS011;8207;52.494;4.654;2022-07-23T09:49:58;4.00;;;1.13;;
16199;SDS011;8207;52.494;4.654;2022-07-23T09:52:30;1.85;;;0.98;;
16199;SDS011;8207;52.494;4.654;2022-07-23T09:55:01;1.60;;;0.95;;
16199;SDS011;8207;52.494;4.654;2022-07-23T09:57:29;2.25;;;1.30;;
16199;SDS011;8207;52.494;4.654;2022-07-23T10:00:00;4.00;;;0.98;;
16199;SDS011;8207;52.494;4.654;2022-07-23T10:02:30;3.15;;;1.20;;
16199;SDS011;8207;52.494;4.654;2022-07-23T10:05:00;2.08;;;1.15;;
16199;SDS011;8207;52.494;4.654;2022-07-23T10:07:28;2.70;;;0.93;;
16199;SDS011;8207;52.494;4.654;2022-07-23T10:09:58;3.55;;;0.90;;
16199;SDS011;8207;52.494;4.654;2022-07-23T10:12:28;2.78;;;1.55;;
16199;SDS011;8207;52.494;4.654;2022-07-23T10:15:21;3.80;;;1.42;;
16199;SDS011;8207;52.494;4.654;2022-07-23T10:17:48;2.95;;;1.70;;
16199;SDS011;8207;52.494;4.654;2022-07-23T10:20:15;6.22;;;2.00;;
16199;SDS011;8207;52.494;4.654;2022-07-23T10:22:42;2.42;;;1.40;;
16199;SDS011;8207;52.494;4.654;2022-07-23T10:25:18;2.88;;;1.40;;
16199;SDS011;8207;52.494;4.654;2022-07-23T10:27:56;2.20;;;1.27;;
16199;SDS011;8207;52.494;4.654;2022-07-23T10:30:34;2.38;;;1.40;;
16199;SDS011;8207;52.494;4.654;2022-07-23T10:33:20;2.35;;;1.55;;
16199;SDS011;8207;52.494;4.654;2022-07-23T10:36:00;2.45;;;1.30;;
16199;SDS011;8207;52.494;4.654;2022-07-23T10:38:34;4.47;;;1.70;;
16199;SDS011;8207;52.494;4.654;2022-07-23T10:41:10;3.78;;;1.48;;
16199;SDS011;8207;52.494;4.654;2022-07-23T10:43:38;2.63;;;1.30;;
16199;SDS011;8207;52.494;4.654;2022-07-23T10:46:20;3.28;;;1.40;;
16199;SDS011;8207;52.494;4.654;2022-07-23T10:54:45;3.40;;;1.67;;
16199;SDS011;8207;52.494;4.654;2022-07-23T10:57:15;3.92;;;1.75;;
16199;SDS011;8207;52.494;4.654;2022-07-23T11:02:43;2.88;;;1.60;;
16199;SDS011;8207;52.494;4.654;2022-07-23T11:05:12;2.72;;;1.65;;
16199;SDS011;8207;52.494;4.654;2022-07-23T11:10:40;3.53;;;2.30;;
16199;SDS011;8207;52.494;4.654;2022-07-23T11:16:23;3.47;;;1.98;;
16199;SDS011;8207;52.494;4.654;2022-07-23T11:18:56;4.47;;;2.00;;
16199;SDS011;8207;52.494;4.654;2022-07-23T11:21:46;4.82;;;1.77;;
16199;SDS011;8207;52.494;4.654;2022-07-23T11:24:20;2.38;;;1.60;;
16199;SDS011;8207;52.494;4.654;2022-07-23T11:26:53;3.53;;;1.60;;
16199;SDS011;8207;52.494;4.654;2022-07-23T11:29:38;2.38;;;1.42;;
16199;SDS011;8207;52.494;4.654;2022-07-23T11:32:07;2.95;;;1.45;;
16199;SDS011;8207;52.494;4.654;2022-07-23T11:34:44;2.55;;;0.95;;
16199;SDS011;8207;52.494;4.654;2022-07-23T11:37:26;2.28;;;0.80;;
16199;SDS011;8207;52.494;4.654;2022-07-23T11:39:55;2.35;;;0.80;;
16199;SDS011;8207;52.494;4.654;2022-07-23T11:42:22;1.58;;;1.00;;
16199;SDS011;8207;52.494;4.654;2022-07-23T11:44:50;2.30;;;0.90;;
16199;SDS011;8207;52.494;4.654;2022-07-23T11:47:22;1.70;;;1.00;;
16199;SDS011;8207;52.494;4.654;2022-07-23T11:49:53;1.83;;;0.80;;
16199;SDS011;8207;52.494;4.654;2022-07-23T11:52:21;2.90;;;0.90;;
16199;SDS011;8207;52.494;4.654;2022-07-23T11:54:49;1.63;;;1.15;;
16199;SDS011;8207;52.494;4.654;2022-07-23T11:57:17;2.65;;;1.20;;
16199;SDS011;8207;52.494;4.654;2022-07-23T11:59:46;2.13;;;0.75;;
16199;SDS011;8207;52.494;4.654;2022-07-23T12:02:15;1.63;;;0.90;;
16199;SDS011;8207;52.494;4.654;2022-07-23T12:04:44;1.35;;;0.57;;
16199;SDS011;8207;52.494;4.654;2022-07-23T12:07:26;2.28;;;0.85;;
16199;SDS011;8207;52.494;4.654;2022-07-23T12:09:55;3.17;;;1.35;;
16199;SDS011;8207;52.494;4.654;2022-07-23T12:12:23;4.65;;;1.50;;
16199;SDS011;8207;52.494;4.654;2022-07-23T12:14:51;1.45;;;0.95;;
16199;SDS011;8207;52.494;4.654;2022-07-23T12:17:19;1.63;;;1.13;;
16199;SDS011;8207;52.494;4.654;2022-07-23T12:19:48;2.67;;;2.28;;
16199;SDS011;8207;52.494;4.654;2022-07-23T12:22:15;2.60;;;2.00;;
16199;SDS011;8207;52.494;4.654;2022-07-23T12:24:52;3.45;;;1.38;;
16199;SDS011;8207;52.494;4.654;2022-07-23T12:27:23;3.75;;;1.40;;
16199;SDS011;8207;52.494;4.654;2022-07-23T12:29:50;2.35;;;1.35;;
16199;SDS011;8207;52.494;4.654;2022-07-23T12:32:18;3.53;;;1.30;;
16199;SDS011;8207;52.494;4.654;2022-07-23T12:34:51;3.67;;;1.65;;
16199;SDS011;8207;52.494;4.654;2022-07-23T12:37:29;2.08;;;1.58;;
16199;SDS011;8207;52.494;4.654;2022-07-23T12:39:57;3.05;;;1.30;;
16199;SDS011;8207;52.494;4.654;2022-07-23T12:42:24;1.45;;;1.00;;
16199;SDS011;8207;52.494;4.654;2022-07-23T12:45:04;3.22;;;2.85;;
16199;SDS011;8207;52.494;4.654;2022-07-23T12:50:41;3.47;;;1.40;;
16199;SDS011;8207;52.494;4.654;2022-07-23T12:53:10;2.78;;;0.93;;
16199;SDS011;8207;52.494;4.654;2022-07-23T12:55:40;2.63;;;1.00;;
16199;SDS011;8207;52.494;4.654;2022-07-23T12:58:13;3.80;;;2.92;;
16199;SDS011;8207;52.494;4.654;2022-07-23T13:03:32;2.72;;;1.98;;
16199;SDS011;8207;52.494;4.654;2022-07-23T13:06:04;2.45;;;1.25;;
16199;SDS011;8207;52.494;4.654;2022-07-23T13:08:33;2.20;;;1.25;;
16199;SDS011;8207;52.494;4.654;2022-07-23T13:11:01;3.05;;;1.98;;
16199;SDS011;8207;52.494;4.654;2022-07-23T13:13:30;2.80;;;1.20;;
16199;SDS011;8207;52.494;4.654;2022-07-23T13:15:59;2.50;;;1.25;;
16199;SDS011;8207;52.494;4.654;2022-07-23T13:18:27;1.85;;;0.93;;
16199;SDS011;8207;52.494;4.654;2022-07-23T13:20:54;2.85;;;1.23;;
16199;SDS011;8207;52.494;4.654;2022-07-23T13:23:23;1.23;;;1.10;;
16199;SDS011;8207;52.494;4.654;2022-07-23T13:25:50;1.42;;;1.20;;
16199;SDS011;8207;52.494;4.654;2022-07-23T13:28:18;2.95;;;1.30;;
16199;SDS011;8207;52.494;4.654;2022-07-23T13:30:46;2.03;;;1.00;;
16199;SDS011;8207;52.494;4.654;2022-07-23T13:33:14;1.73;;;1.02;;
16199;SDS011;8207;52.494;4.654;2022-07-23T13:35:42;3.20;;;2.33;;
16199;SDS011;8207;52.494;4.654;2022-07-23T13:38:09;1.42;;;1.10;;
16199;SDS011;8207;52.494;4.654;2022-07-23T13:40:38;1.75;;;1.00;;
16199;SDS011;8207;52.494;4.654;2022-07-23T13:43:07;1.55;;;0.82;;
16199;SDS011;8207;52.494;4.654;2022-07-23T13:45:35;0.80;;;0.77;;
16199;SDS011;8207;52.494;4.654;2022-07-23T13:48:03;2.38;;;1.98;;
16199;SDS011;8207;52.494;4.654;2022-07-23T13:50:31;1.70;;;1.38;;
16199;SDS011;8207;52.494;4.654;2022-07-23T13:53:00;1.85;;;0.95;;
16199;SDS011;8207;52.494;4.654;2022-07-23T13:55:27;1.25;;;0.90;;
16199;SDS011;8207;52.494;4.654;2022-07-23T13:57:56;1.75;;;1.20;;
16199;SDS011;8207;52.494;4.654;2022-07-23T14:00:23;3.35;;;1.38;;
16199;SDS011;8207;52.494;4.654;2022-07-23T14:02:50;2.70;;;1.27;;
16199;SDS011;8207;52.494;4.654;2022-07-23T14:05:17;1.50;;;1.00;;
16199;SDS011;8207;52.494;4.654;2022-07-23T14:07:45;1.90;;;1.15;;
16199;SDS011;8207;52.494;4.654;2022-07-23T14:10:15;2.67;;;0.93;;
16199;SDS011;8207;52.494;4.654;2022-07-23T14:12:42;1.80;;;1.40;;
16199;SDS011;8207;52.494;4.654;2022-07-23T14:15:11;4.70;;;1.70;;
16199;SDS011;8207;52.494;4.654;2022-07-23T14:17:38;2.42;;;1.15;;
16199;SDS011;8207;52.494;4.654;2022-07-23T14:20:06;1.40;;;1.25;;
16199;SDS011;8207;52.494;4.654;2022-07-23T14:22:35;1.65;;;0.90;;
16199;SDS011;8207;52.494;4.654;2022-07-23T14:25:02;3.20;;;1.10;;
16199;SDS011;8207;52.494;4.654;2022-07-23T14:27:30;1.60;;;1.00;;
16199;SDS011;8207;52.494;4.654;2022-07-23T14:29:57;2.30;;;1.02;;
16199;SDS011;8207;52.494;4.654;2022-07-23T14:32:26;2.72;;;1.13;;
16199;SDS011;8207;52.494;4.654;2022-07-23T14:34:53;1.15;;;0.98;;
16199;SDS011;8207;52.494;4.654;2022-07-23T14:37:20;2.28;;;1.80;;
16199;SDS011;8207;52.494;4.654;2022-07-23T14:39:47;1.52;;;1.25;;
16199;SDS011;8207;52.494;4.654;2022-07-23T14:42:14;1.90;;;1.80;;
16199;SDS011;8207;52.494;4.654;2022-07-23T14:44:41;1.65;;;1.48;;
16199;SDS011;8207;52.494;4.654;2022-07-23T14:47:08;2.20;;;1.50;;
16199;SDS011;8207;52.494;4.654;2022-07-23T14:49:36;2.70;;;1.10;;
16199;SDS011;8207;52.494;4.654;2022-07-23T14:52:04;1.45;;;1.23;;
16199;SDS011;8207;52.494;4.654;2022-07-23T14:54:32;2.90;;;1.13;;
16199;SDS011;8207;52.494;4.654;2022-07-23T14:56:59;3.55;;;0.98;;
16199;SDS011;8207;52.494;4.654;2022-07-23T14:59:27;2.17;;;1.05;;
16199;SDS011;8207;52.494;4.654;2022-07-23T15:01:55;2.70;;;1.15;;
16199;SDS011;8207;52.494;4.654;2022-07-23T15:04:22;2.25;;;0.95;;
16199;SDS011;8207;52.494;4.654;2022-07-23T15:06:51;2.28;;;1.15;;
16199;SDS011;8207;52.494;4.654;2022-07-23T15:09:18;3.33;;;1.17;;
16199;SDS011;8207;52.494;4.654;2022-07-23T15:11:45;2.30;;;1.83;;
16199;SDS011;8207;52.494;4.654;2022-07-23T15:14:12;3.08;;;2.33;;
16199;SDS011;8207;52.494;4.654;2022-07-23T15:16:39;1.70;;;1.33;;
16199;SDS011;8207;52.494;4.654;2022-07-23T15:19:06;1.67;;;1.08;;
16199;SDS011;8207;52.494;4.654;2022-07-23T15:21:33;2.20;;;1.42;;
16199;SDS011;8207;52.494;4.654;2022-07-23T15:24:01;2.15;;;1.30;;
16199;SDS011;8207;52.494;4.654;2022-07-23T15:26:29;1.63;;;1.30;;
16199;SDS011;8207;52.494;4.654;2022-07-23T15:28:56;2.17;;;1.20;;